createdAt,value
2023-02-16T00:04:46.044Z,96788.50
2023-02-16T00:09:47.558Z,96788.50
2023-02-16T00:14:49.082Z,96784.63
2023-02-16T00:19:50.600Z,96787.44
2023-02-16T00:24:52.181Z,96785.72
2023-02-16T00:29:53.745Z,96784.78
2023-02-16T00:34:55.223Z,96784.03
2023-02-16T00:39:56.663Z,96774.22
2023-02-16T00:44:59.175Z,96770.00
2023-02-16T00:50:00.799Z,96773.16
2023-02-16T00:55:06.362Z,96781.56
2023-02-16T01:00:17.447Z,96780.47
2023-02-16T01:05:19.458Z,96782.44
2023-02-16T01:10:21.198Z,96785.34
2023-02-16T01:15:25.954Z,96784.66
2023-02-16T01:20:28.550Z,96791.78
2023-02-16T01:25:30.439Z,96787.75
2023-02-16T01:30:32.167Z,96784.13
2023-02-16T01:35:34.440Z,96784.94
2023-02-16T01:40:41.187Z,96790.38
2023-02-16T01:45:48.076Z,96791.50
2023-02-16T01:50:59.301Z,96800.75
2023-02-16T01:56:05.673Z,96785.41
2023-02-16T02:01:41.480Z,96781.38
2023-02-16T02:06:43.665Z,96788.50
2023-02-16T02:11:58.106Z,96786.09
2023-02-16T02:17:05.427Z,96765.19
2023-02-16T02:22:29.948Z,96776.97
2023-02-16T02:27:39.354Z,96774.28
2023-02-16T02:32:58.675Z,96774.59
2023-02-16T02:38:15.641Z,96772.72
2023-02-16T02:43:38.512Z,96766.81
2023-02-16T02:48:40.055Z,96770.75
2023-02-16T02:53:47.576Z,96774.38
2023-02-16T02:58:53.121Z,96765.75
2023-02-16T03:03:58.015Z,96769.25
2023-02-16T03:09:09.309Z,96759.75
2023-02-16T03:14:24.820Z,96767.69
2023-02-16T03:19:32.373Z,96764.75
2023-02-16T03:24:34.259Z,96771.97
2023-02-16T03:35:52.353Z,96775.63
2023-02-16T03:40:54.361Z,96778.00
2023-02-16T03:45:55.909Z,96779.06
2023-02-16T03:50:57.455Z,96773.56
2023-02-16T03:55:58.932Z,96784.53
2023-02-16T04:01:00.667Z,96782.72
2023-02-16T04:06:02.622Z,96773.81
2023-02-16T04:11:04.515Z,96777.16
2023-02-16T04:16:06.258Z,96778.47
2023-02-16T04:21:07.707Z,96777.56
2023-02-16T04:26:09.222Z,96771.25
2023-02-16T04:31:10.744Z,96783.69
2023-02-16T04:36:12.260Z,96787.44
2023-02-16T04:41:13.765Z,96784.09
2023-02-16T04:46:15.220Z,96793.25
2023-02-16T04:51:16.785Z,96800.03
2023-02-16T04:56:18.329Z,96797.63
2023-02-16T05:01:26.187Z,96800.47
2023-02-16T05:06:27.751Z,96799.00
2023-02-16T05:11:29.254Z,96801.69
2023-02-16T05:16:30.746Z,96801.56
2023-02-16T05:21:32.285Z,96811.25
2023-02-16T05:26:35.483Z,96809.63
2023-02-16T05:31:37.003Z,96817.72
2023-02-16T05:36:38.592Z,96818.75
2023-02-16T05:41:40.500Z,96818.00
2023-02-16T05:46:42.526Z,96826.81
2023-02-16T05:51:44.304Z,96832.38
2023-02-16T05:56:48.066Z,96829.03
2023-02-16T06:01:52.140Z,96834.28
2023-02-16T06:06:54.511Z,96834.53
2023-02-16T06:11:55.956Z,96834.69
2023-02-16T06:16:57.455Z,96839.16
2023-02-16T06:21:58.975Z,96836.25
2023-02-16T06:27:00.493Z,96845.16
2023-02-16T06:32:02.200Z,96847.09
2023-02-16T06:37:03.867Z,96851.63
2023-02-16T06:42:05.431Z,96855.06
2023-02-16T06:47:06.867Z,96859.94
2023-02-16T06:52:08.336Z,96859.06
2023-02-16T06:57:09.827Z,96868.53
2023-02-16T07:02:11.487Z,96866.88
2023-02-16T07:07:13.091Z,96868.59
2023-02-16T07:12:14.618Z,96871.88
2023-02-16T07:17:16.116Z,96875.06
2023-02-16T07:22:17.631Z,96874.00
2023-02-16T07:27:19.088Z,96874.19
2023-02-16T07:32:20.560Z,96881.66
2023-02-16T07:37:22.132Z,96883.03
2023-02-16T07:42:23.625Z,96885.16
2023-02-16T07:47:27.820Z,96881.94
2023-02-16T07:52:29.331Z,96889.81
2023-02-16T07:57:30.774Z,96894.22
2023-02-16T08:02:32.345Z,96885.84
2023-02-16T08:07:33.844Z,96896.38
2023-02-16T08:12:35.378Z,96886.53
2023-02-16T08:17:37.006Z,96895.19
2023-02-16T08:22:38.475Z,96887.72
2023-02-16T08:27:39.920Z,96885.31
2023-02-16T08:32:41.373Z,96887.84
2023-02-16T08:37:42.819Z,96879.88
2023-02-16T08:42:44.304Z,96882.34
2023-02-16T08:47:45.805Z,96880.91
2023-02-16T08:52:47.256Z,96878.69
2023-02-16T08:57:48.760Z,96881.13
2023-02-16T09:02:50.286Z,96878.50
2023-02-16T09:07:51.746Z,96880.88
2023-02-16T09:12:53.327Z,96876.91
2023-02-16T09:17:54.768Z,96876.19
2023-02-16T09:22:56.333Z,96875.59
2023-02-16T09:27:57.863Z,96874.16
2023-02-16T09:33:00.007Z,96880.53
2023-02-16T09:38:01.549Z,96866.84
2023-02-16T09:43:18.003Z,96872.53
2023-02-16T09:48:40.114Z,96868.19
2023-02-16T09:53:43.472Z,96867.41
2023-02-16T09:59:15.717Z,96873.34
2023-02-16T10:04:36.717Z,96859.91
2023-02-16T10:09:40.472Z,96862.34
2023-02-16T10:14:49.767Z,96860.63
2023-02-16T10:20:18.098Z,96863.19
2023-02-16T10:25:32.022Z,96859.69
2023-02-16T10:30:33.576Z,96856.81
2023-02-16T10:35:45.545Z,96856.06
2023-02-16T10:41:19.994Z,96855.28
2023-02-16T10:46:46.908Z,96844.63
2023-02-16T10:51:51.851Z,96848.63
2023-02-16T10:57:00.548Z,96832.88
2023-02-16T11:02:20.231Z,96833.06
2023-02-16T11:07:24.745Z,96836.69
2023-02-16T11:12:35.772Z,96822.47
2023-02-16T11:17:48.865Z,96818.50
2023-02-16T11:22:50.367Z,96819.81
2023-02-16T11:27:57.889Z,96806.81
2023-02-16T11:33:05.411Z,96797.53
2023-02-16T11:38:21.933Z,96800.50
2023-02-16T11:43:27.830Z,96789.00
2023-02-16T11:48:32.283Z,96773.22
2023-02-16T11:53:36.924Z,96766.81
2023-02-16T11:58:39.484Z,96755.84
2023-02-16T12:04:14.881Z,96751.84
2023-02-16T12:09:29.031Z,96743.97
2023-02-16T12:14:49.710Z,96742.56
2023-02-16T12:20:20.800Z,96738.41
2023-02-16T12:25:42.148Z,96739.56
2023-02-16T12:31:12.955Z,96732.34
2023-02-16T12:36:45.199Z,96721.16
2023-02-16T12:41:52.819Z,96719.75
2023-02-16T12:47:02.052Z,96713.19
2023-02-16T12:52:11.774Z,96705.88
2023-02-16T12:57:15.935Z,96700.59
2023-02-16T13:02:24.121Z,96692.56
2023-02-16T13:07:41.593Z,96686.69
2023-02-16T13:13:00.745Z,96686.47
2023-02-16T13:18:06.778Z,96679.19
2023-02-16T13:23:30.108Z,96666.56
2023-02-16T13:29:02.538Z,96651.22
2023-02-16T13:34:28.308Z,96655.31
2023-02-16T13:39:40.763Z,96652.59
2023-02-16T13:44:48.372Z,96644.69
2023-02-16T13:49:57.393Z,96650.06
2023-02-16T13:55:02.065Z,96645.75
2023-02-16T14:00:04.571Z,96637.53
2023-02-16T14:05:24.262Z,96630.88
2023-02-16T14:10:51.934Z,96630.78
2023-02-16T14:15:56.020Z,96632.63
2023-02-16T14:21:03.488Z,96623.81
2023-02-16T14:26:06.873Z,96631.06
2023-02-16T14:31:17.919Z,96631.34
2023-02-16T14:36:22.588Z,96633.94
2023-02-16T14:41:28.038Z,96639.88
2023-02-16T14:46:35.779Z,96628.34
2023-02-16T14:51:58.818Z,96630.72
2023-02-16T14:57:07.191Z,96629.47
2023-02-16T15:02:32.302Z,96632.50
2023-02-16T15:07:33.832Z,96642.06
2023-02-16T15:12:39.398Z,96644.28
2023-02-16T15:17:45.092Z,96647.19
2023-02-16T15:22:55.684Z,96641.16
2023-02-16T15:28:00.232Z,96654.06
2023-02-16T15:33:25.384Z,96654.97
2023-02-16T15:38:32.451Z,96651.28
2023-02-16T15:43:37.383Z,96649.81
2023-02-16T15:48:39.250Z,96657.75
2023-02-16T15:54:00.805Z,96658.63
2023-02-16T15:59:14.532Z,96658.19
2023-02-16T16:04:24.986Z,96663.31
2023-02-16T16:09:32.378Z,96659.59
2023-02-16T16:14:40.402Z,96658.22
2023-02-16T16:19:42.447Z,96665.78
2023-02-16T16:24:43.929Z,96668.41
2023-02-16T16:29:47.381Z,96678.13
2023-02-16T16:34:49.972Z,96680.31
2023-02-16T16:40:01.164Z,96688.59
2023-02-16T16:45:20.666Z,96691.03
2023-02-16T16:50:39.649Z,96689.09
2023-02-16T16:55:41.394Z,96697.75
2023-02-16T17:00:42.928Z,96685.84
2023-02-16T17:05:45.935Z,96701.63
2023-02-16T17:10:47.511Z,96702.44
2023-02-16T17:15:56.509Z,96701.69
2023-02-16T17:20:58.317Z,96702.03
2023-02-16T17:25:59.822Z,96710.53
2023-02-16T17:31:01.346Z,96713.06
2023-02-16T17:36:05.350Z,96705.63
2023-02-16T17:41:07.162Z,96709.72
2023-02-16T17:46:09.197Z,96700.09
2023-02-16T17:51:15.773Z,96698.09
2023-02-16T17:56:20.103Z,96694.16
2023-02-16T18:01:22.358Z,96699.84
2023-02-16T18:06:23.999Z,96695.16
2023-02-16T18:11:26.206Z,96699.69
2023-02-16T18:16:27.840Z,96700.28
2023-02-16T18:21:29.347Z,96709.09
2023-02-16T18:26:30.811Z,96710.00
2023-02-16T18:31:32.415Z,96715.56
2023-02-16T18:36:34.067Z,96720.88
2023-02-16T18:41:36.068Z,96732.47
2023-02-16T18:46:37.556Z,96724.38
2023-02-16T18:51:39.087Z,96725.72
2023-02-16T18:56:40.640Z,96735.59
2023-02-16T19:01:42.276Z,96728.66
2023-02-16T19:06:43.817Z,96723.72
2023-02-16T19:11:45.428Z,96729.50
2023-02-16T19:16:46.992Z,96732.78
2023-02-16T19:21:48.559Z,96733.50
2023-02-16T19:26:50.060Z,96744.72
2023-02-16T19:31:51.628Z,96740.25
2023-02-16T19:36:53.209Z,96751.69
2023-02-16T19:41:54.668Z,96766.97
2023-02-16T19:46:56.214Z,96763.25
2023-02-16T19:51:57.749Z,96760.59
2023-02-16T19:56:59.187Z,96765.16
2023-02-16T20:02:02.002Z,96773.31
2023-02-16T20:07:03.757Z,96775.75
2023-02-16T20:12:05.781Z,96773.72
2023-02-16T20:17:07.376Z,96775.59
2023-02-16T20:22:08.910Z,96771.78
2023-02-16T20:27:11.474Z,96773.44
2023-02-16T20:32:13.012Z,96778.09
2023-02-16T20:37:14.528Z,96774.00
2023-02-16T20:42:16.048Z,96781.84
2023-02-16T20:47:17.535Z,96778.78
2023-02-16T20:52:19.071Z,96771.66
2023-02-16T20:57:26.821Z,96771.56
2023-02-16T21:02:28.713Z,96767.94
2023-02-16T21:07:30.206Z,96768.19
2023-02-16T21:12:31.782Z,96779.72
2023-02-16T21:17:33.424Z,96772.00
2023-02-16T21:22:34.997Z,96769.13
2023-02-16T21:27:36.498Z,96768.63
2023-02-16T21:32:37.951Z,96779.16
2023-02-16T21:37:39.475Z,96774.47
2023-02-16T21:42:40.918Z,96770.72
2023-02-16T21:47:44.806Z,96766.38
2023-02-16T21:52:46.279Z,96762.78
2023-02-16T21:57:47.782Z,96767.94
2023-02-16T22:02:49.309Z,96761.94
2023-02-16T22:07:51.659Z,96757.16
2023-02-16T22:12:53.777Z,96755.00
2023-02-16T22:17:55.415Z,96753.34
2023-02-16T22:22:57.052Z,96740.31
2023-02-16T22:27:58.541Z,96747.03
2023-02-16T22:33:00.047Z,96745.59
2023-02-16T22:38:01.581Z,96742.44
2023-02-16T22:43:03.047Z,96736.97
2023-02-16T22:48:05.107Z,96743.91
2023-02-16T22:53:06.597Z,96739.59
2023-02-16T22:58:08.121Z,96745.13
2023-02-16T23:03:09.609Z,96750.56
2023-02-16T23:08:11.639Z,96748.81
2023-02-16T23:13:13.105Z,96745.47
2023-02-16T23:18:14.548Z,96745.47
2023-02-16T23:23:16.137Z,96741.16
2023-02-16T23:28:18.318Z,96741.75
2023-02-16T23:33:19.767Z,96734.47
2023-02-16T23:38:22.041Z,96739.75
2023-02-16T23:43:23.699Z,96740.31
2023-02-16T23:48:25.327Z,96737.53
2023-02-16T23:53:28.125Z,96743.59
2023-02-16T23:58:31.640Z,96729.41
